createdAt,value
2017-11-28T00:00:26.148Z,99650.45
2017-11-28T00:01:31.786Z,99654.36
2017-11-28T00:02:37.651Z,99652.01
2017-11-28T00:03:43.450Z,99649.28
2017-11-28T00:04:49.558Z,99656.05
2017-11-28T00:05:55.284Z,99651.73
2017-11-28T00:07:01.369Z,99648.23
2017-11-28T00:08:08.672Z,99641.45
2017-11-28T00:09:14.420Z,99644.19
2017-11-28T00:10:20.289Z,99642.03
2017-11-28T00:11:25.844Z,99640.60
2017-11-28T00:12:31.900Z,99643.52
2017-11-28T00:13:37.143Z,99641.88
2017-11-28T00:14:42.314Z,99626.14
2017-11-28T00:15:48.074Z,99635.36
2017-11-28T00:16:54.165Z,99633.46
2017-11-28T00:17:59.696Z,99624.38
2017-11-28T00:19:05.061Z,99627.69
2017-11-28T00:20:10.490Z,99625.11
2017-11-28T00:21:16.756Z,99620.63
2017-11-28T00:22:22.845Z,99615.38
2017-11-28T00:23:27.992Z,99618.77
2017-11-28T00:24:33.410Z,99624.36
2017-11-28T00:25:39.170Z,99620.64
2017-11-28T00:26:44.534Z,99624.77
2017-11-28T00:27:49.918Z,99614.63
2017-11-28T00:28:55.326Z,99619.04
2017-11-28T00:30:00.733Z,99616.81
2017-11-28T00:31:06.154Z,99622.63
2017-11-28T00:32:11.568Z,99618.97
2017-11-28T00:33:17.592Z,99621.28
2017-11-28T00:34:23.359Z,99617.09
2017-11-28T00:35:30.910Z,99622.38
2017-11-28T00:36:36.679Z,99626.06
2017-11-28T00:37:42.080Z,99619.12
2017-11-28T00:38:47.242Z,99626.80
2017-11-28T00:39:52.642Z,99630.45
2017-11-28T00:40:58.072Z,99625.89
2017-11-28T00:42:04.151Z,99627.81
2017-11-28T00:43:09.568Z,99623.50
2017-11-28T00:44:15.126Z,99619.80
2017-11-28T00:45:20.322Z,99611.62
2017-11-28T00:46:25.837Z,99620.31
2017-11-28T00:47:31.073Z,99614.58
2017-11-28T00:48:36.820Z,99619.72
2017-11-28T00:49:42.272Z,99627.49
2017-11-28T00:50:47.683Z,99618.82
2017-11-28T00:51:53.372Z,99625.48
2017-11-28T00:52:58.780Z,99622.45
2017-11-28T00:54:04.523Z,99614.22
2017-11-28T00:55:09.910Z,99619.61
2017-11-28T00:56:15.682Z,99625.16
2017-11-28T00:57:21.423Z,99610.59
2017-11-28T00:58:26.698Z,99618.04
2017-11-28T00:59:32.041Z,99615.70
2017-11-28T01:00:38.091Z,99619.89
2017-11-28T01:01:44.055Z,99621.55
2017-11-28T01:02:50.088Z,99624.36
2017-11-28T01:03:55.515Z,99617.19
2017-11-28T01:05:01.631Z,99615.70
2017-11-28T01:06:07.308Z,99617.52
2017-11-28T01:07:13.565Z,99620.92
2017-11-28T01:08:18.929Z,99611.42
2017-11-28T01:09:24.129Z,99611.14
2017-11-28T01:10:29.315Z,99612.08
2017-11-28T01:11:35.104Z,99606.70
2017-11-28T01:12:40.662Z,99599.89
2017-11-28T01:13:46.339Z,99607.86
2017-11-28T01:14:51.742Z,99613.30
2017-11-28T01:15:57.102Z,99610.27
2017-11-28T01:17:02.878Z,99606.11
2017-11-28T01:18:13.254Z,99600.06
2017-11-28T01:19:19.433Z,99604.66
2017-11-28T01:20:24.855Z,99607.71
2017-11-28T01:21:30.204Z,99601.92
2017-11-28T01:22:36.033Z,99598.41
2017-11-28T01:23:41.414Z,99597.52
2017-11-28T01:24:46.832Z,99595.66
2017-11-28T01:25:55.920Z,99597.13
2017-11-28T01:27:01.343Z,99595.70
2017-11-28T01:28:07.055Z,99587.69
2017-11-28T01:29:12.999Z,99580.31
2017-11-28T01:30:18.378Z,99597.81
2017-11-28T01:31:23.591Z,99591.30
2017-11-28T01:32:28.972Z,99591.06
2017-11-28T01:33:34.372Z,99585.98
2017-11-28T01:34:44.788Z,99593.43
2017-11-28T01:35:52.001Z,99585.42
2017-11-28T01:36:58.052Z,99576.55
2017-11-28T01:38:04.164Z,99577.73
2017-11-28T01:39:09.588Z,99578.31
2017-11-28T01:40:14.990Z,99576.41
2017-11-28T01:41:20.205Z,99576.33
2017-11-28T01:42:25.660Z,99567.69
2017-11-28T01:43:30.873Z,99572.95
2017-11-28T01:44:36.340Z,99574.48
2017-11-28T01:45:44.829Z,99573.55
2017-11-28T01:46:52.244Z,99566.91
2017-11-28T01:47:57.587Z,99564.50
2017-11-28T01:49:02.986Z,99561.81
2017-11-28T01:50:08.215Z,99549.78
2017-11-28T01:51:13.401Z,99549.78
2017-11-28T01:52:18.562Z,99550.14
2017-11-28T01:53:23.750Z,99551.95
2017-11-28T01:54:29.117Z,99547.73
2017-11-28T01:55:34.352Z,99551.20
2017-11-28T01:56:39.761Z,99560.06
2017-11-28T01:57:44.910Z,99549.99
2017-11-28T01:58:50.368Z,99545.70
2017-11-28T01:59:55.681Z,99554.76
2017-11-28T02:01:00.894Z,99550.77
2017-11-28T02:02:05.466Z,99550.89
2017-11-28T02:03:10.635Z,99545.57
2017-11-28T02:04:15.939Z,99543.92
2017-11-28T02:05:25.053Z,99544.27
2017-11-28T02:06:30.563Z,99537.41
2017-11-28T02:07:35.566Z,99533.41
2017-11-28T02:08:41.719Z,99536.34
2017-11-28T02:09:46.746Z,99533.79
2017-11-28T02:10:52.119Z,99533.81
2017-11-28T02:11:57.286Z,99534.11
2017-11-28T02:13:02.554Z,99524.31
2017-11-28T02:14:12.539Z,99523.95
2017-11-28T02:15:18.048Z,99518.58
2017-11-28T02:16:23.029Z,99515.19
2017-11-28T02:17:28.527Z,99514.44
2017-11-28T02:18:33.544Z,99512.69
2017-11-28T02:19:38.716Z,99517.34
2017-11-28T02:20:43.790Z,99507.64
2017-11-28T02:21:51.930Z,99505.35
2017-11-28T02:22:57.133Z,99508.49
2017-11-28T02:24:02.367Z,99508.78
2017-11-28T02:25:07.341Z,99505.61
2017-11-28T02:26:12.357Z,99512.87
2017-11-28T02:27:17.938Z,99506.28
2017-11-28T02:28:23.210Z,99510.12
2017-11-28T02:29:28.433Z,99510.34
2017-11-28T02:30:33.467Z,99509.44
2017-11-28T02:31:38.681Z,99517.11
2017-11-28T02:32:44.607Z,99508.59
2017-11-28T02:33:49.834Z,99518.29
2017-11-28T02:34:55.748Z,99515.23
2017-11-28T02:36:01.206Z,99515.10
2017-11-28T02:37:06.411Z,99511.28
2017-11-28T02:38:11.695Z,99514.42
2017-11-28T02:39:16.900Z,99519.58
2017-11-28T02:40:33.802Z,99512.30
2017-11-28T02:41:38.942Z,99526.16
2017-11-28T02:42:44.106Z,99524.13
2017-11-28T02:43:53.044Z,99521.68
2017-11-28T02:44:58.206Z,99529.95
2017-11-28T02:46:03.386Z,99530.76
2017-11-28T02:47:08.624Z,99520.99
2017-11-28T02:48:13.844Z,99517.51
2017-11-28T02:49:33.453Z,99522.59
2017-11-28T02:50:38.604Z,99525.98
2017-11-28T02:51:44.755Z,99518.89
2017-11-28T02:52:50.743Z,99519.34
2017-11-28T02:53:55.937Z,99521.55
2017-11-28T02:55:08.533Z,99524.98
2017-11-28T02:56:17.554Z,99523.30
2017-11-28T02:57:22.764Z,99525.03
2017-11-28T02:58:30.349Z,99517.89
2017-11-28T02:59:35.529Z,99507.56
2017-11-28T03:00:50.672Z,99517.45
2017-11-28T03:01:59.785Z,99519.98
2017-11-28T03:03:04.969Z,99514.58
2017-11-28T03:04:10.206Z,99514.45
2017-11-28T03:05:15.715Z,99518.05
2017-11-28T03:06:20.887Z,99517.81
2017-11-28T03:07:26.975Z,99521.56
2017-11-28T03:08:32.132Z,99511.95
2017-11-28T03:09:41.068Z,99515.28
2017-11-28T03:10:47.264Z,99507.30
2017-11-28T03:11:52.465Z,99510.17
2017-11-28T03:12:59.324Z,99508.97
2017-11-28T03:14:10.394Z,99509.05
2017-11-28T03:15:27.155Z,99505.84
2017-11-28T03:16:32.408Z,99506.66
2017-11-28T03:17:37.576Z,99498.36
2017-11-28T03:18:46.513Z,99511.38
2017-11-28T03:19:52.597Z,99508.52
2017-11-28T03:21:00.585Z,99512.70
2017-11-28T03:22:25.512Z,99511.27
2017-11-28T03:23:51.580Z,99505.63
2017-11-28T03:25:17.590Z,99508.36
2017-11-28T03:26:27.694Z,99502.38
2017-11-28T03:27:32.615Z,99508.66
2017-11-28T03:28:42.998Z,99504.45
2017-11-28T03:29:52.524Z,99513.23
2017-11-28T03:31:03.781Z,99504.56
2017-11-28T03:32:08.728Z,99506.77
2017-11-28T03:33:13.613Z,99510.70
2017-11-28T03:34:19.572Z,99500.06
2017-11-28T03:35:24.530Z,99508.39
2017-11-28T03:36:29.550Z,99499.39
2017-11-28T03:37:34.249Z,99501.58
2017-11-28T03:38:39.145Z,99499.66
2017-11-28T03:39:44.021Z,99497.19
2017-11-28T03:40:52.010Z,99499.66
2017-11-28T03:41:56.967Z,99504.29
2017-11-28T03:43:01.891Z,99503.13
2017-11-28T03:44:06.840Z,99494.90
2017-11-28T03:45:29.743Z,99488.22
2017-11-28T03:46:35.239Z,99493.03
2017-11-28T03:47:40.255Z,99492.08
2017-11-28T03:48:49.440Z,99492.02
2017-11-28T03:49:54.433Z,99492.31
2017-11-28T03:50:59.808Z,99493.41
2017-11-28T03:52:05.003Z,99489.05
2017-11-28T03:53:10.180Z,99485.42
2017-11-28T03:54:15.348Z,99492.02
2017-11-28T03:55:20.511Z,99493.73
2017-11-28T03:56:25.759Z,99491.28
2017-11-28T03:57:31.038Z,99492.40
2017-11-28T03:58:36.275Z,99491.73
2017-11-28T03:59:47.288Z,99487.81
2017-11-28T04:00:52.715Z,99493.03
2017-11-28T04:02:01.208Z,99490.69
2017-11-28T04:03:06.460Z,99492.38
2017-11-28T04:04:11.704Z,99487.50
2017-11-28T04:05:16.961Z,99486.28
2017-11-28T04:06:22.207Z,99485.45
2017-11-28T04:07:27.585Z,99483.25
2017-11-28T04:08:36.834Z,99485.72
2017-11-28T04:09:42.039Z,99489.52
2017-11-28T04:10:47.225Z,99487.95
2017-11-28T04:11:52.382Z,99489.13
2017-11-28T04:12:59.054Z,99483.98
2017-11-28T04:14:04.538Z,99483.97
2017-11-28T04:15:09.789Z,99488.53
2017-11-28T04:16:14.997Z,99483.45
2017-11-28T04:17:20.145Z,99486.36
2017-11-28T04:18:25.330Z,99479.81
2017-11-28T04:19:30.697Z,99482.30
2017-11-28T04:20:36.830Z,99481.70
2017-11-28T04:21:42.098Z,99479.62
2017-11-28T04:22:47.467Z,99477.63
2017-11-28T04:23:55.590Z,99481.52
2017-11-28T04:25:00.746Z,99480.77
2017-11-28T04:26:06.252Z,99480.08
2017-11-28T04:27:11.629Z,99473.24
2017-11-28T04:28:16.812Z,99473.83
2017-11-28T04:29:21.981Z,99476.86
2017-11-28T04:30:27.182Z,99473.31
2017-11-28T04:31:32.423Z,99478.93
2017-11-28T04:32:37.865Z,99477.73
2017-11-28T04:33:43.092Z,99475.87
2017-11-28T04:34:48.592Z,99477.17
2017-11-28T04:35:53.763Z,99476.06
2017-11-28T04:36:58.919Z,99482.30
2017-11-28T04:38:04.137Z,99474.88
2017-11-28T04:39:09.295Z,99483.75
2017-11-28T04:40:14.778Z,99479.62
2017-11-28T04:41:19.971Z,99479.97
2017-11-28T04:42:25.189Z,99483.25
2017-11-28T04:43:30.386Z,99486.22
2017-11-28T04:44:35.572Z,99486.78
2017-11-28T04:45:40.733Z,99479.12
2017-11-28T04:46:45.939Z,99481.22
2017-11-28T04:47:51.139Z,99491.23
2017-11-28T04:48:56.366Z,99484.78
2017-11-28T04:50:01.795Z,99486.28
2017-11-28T04:51:07.129Z,99482.14
2017-11-28T04:52:12.347Z,99482.73
2017-11-28T04:53:17.546Z,99486.03
2017-11-28T04:54:22.711Z,99482.66
2017-11-28T04:55:27.930Z,99479.48
2017-11-28T04:56:33.467Z,99483.56
2017-11-28T04:57:38.950Z,99477.17
2017-11-28T04:58:44.100Z,99482.14
2017-11-28T04:59:49.281Z,99479.27
2017-11-28T05:00:54.511Z,99478.38
2017-11-28T05:01:59.688Z,99481.88
2017-11-28T05:03:04.926Z,99480.67
2017-11-28T05:04:10.085Z,99475.31
2017-11-28T05:05:15.417Z,99475.48
2017-11-28T05:06:20.625Z,99480.67
2017-11-28T05:07:25.586Z,99476.77
2017-11-28T05:08:31.837Z,99476.85
2017-11-28T05:09:37.366Z,99485.33
2017-11-28T05:10:48.431Z,99479.69
2017-11-28T05:11:53.895Z,99482.09
2017-11-28T05:13:01.060Z,99480.77
2017-11-28T05:14:06.599Z,99482.67
2017-11-28T05:15:11.802Z,99479.83
2017-11-28T05:16:16.996Z,99481.95
2017-11-28T05:17:22.759Z,99478.97
2017-11-28T05:18:28.468Z,99475.01
2017-11-28T05:19:33.928Z,99477.96
2017-11-28T05:20:40.512Z,99477.14
2017-11-28T05:21:45.950Z,99478.58
2017-11-28T05:22:50.981Z,99475.55
2017-11-28T05:23:56.174Z,99479.04
2017-11-28T05:25:01.399Z,99480.34
2017-11-28T05:26:07.139Z,99481.59
2017-11-28T05:27:12.442Z,99478.88
2017-11-28T05:28:17.646Z,99474.33
2017-11-28T05:29:22.865Z,99478.11
2017-11-28T05:30:27.854Z,99470.25
2017-11-28T05:31:33.113Z,99475.98
2017-11-28T05:32:38.317Z,99468.23
2017-11-28T05:33:44.062Z,99473.45
2017-11-28T05:34:49.313Z,99478.98
2017-11-28T05:35:54.881Z,99477.25
2017-11-28T05:37:00.069Z,99476.73
2017-11-28T05:38:05.249Z,99468.03
2017-11-28T05:39:10.487Z,99472.07
2017-11-28T05:40:15.652Z,99477.77
2017-11-28T05:41:20.679Z,99483.33
2017-11-28T05:42:26.321Z,99477.52
2017-11-28T05:43:31.506Z,99479.84
2017-11-28T05:44:36.765Z,99479.57
2017-11-28T05:45:42.766Z,99480.05
2017-11-28T05:46:48.037Z,99483.25
2017-11-28T05:47:53.239Z,99472.70
2017-11-28T05:48:58.421Z,99476.20
2017-11-28T05:50:03.610Z,99470.84
2017-11-28T05:51:10.022Z,99475.42
2017-11-28T05:52:15.253Z,99481.23
2017-11-28T05:53:21.399Z,99473.96
2017-11-28T05:54:26.550Z,99480.11
2017-11-28T05:55:31.794Z,99480.08
2017-11-28T05:56:39.798Z,99475.47
2017-11-28T05:57:45.144Z,99483.59
2017-11-28T05:58:50.310Z,99478.64
2017-11-28T05:59:55.555Z,99479.28
2017-11-28T06:01:01.776Z,99474.44
2017-11-28T06:02:07.194Z,99475.02
2017-11-28T06:03:12.430Z,99483.59
2017-11-28T06:04:17.631Z,99480.22
2017-11-28T06:05:23.128Z,99478.06
2017-11-28T06:06:28.308Z,99476.14
2017-11-28T06:07:33.579Z,99478.38
2017-11-28T06:08:42.071Z,99479.52
2017-11-28T06:09:47.333Z,99480.15
2017-11-28T06:10:52.495Z,99482.69
2017-11-28T06:11:57.688Z,99479.57
2017-11-28T06:13:02.897Z,99481.16
2017-11-28T06:14:08.160Z,99483.72
2017-11-28T06:15:14.523Z,99480.50
2017-11-28T06:16:19.713Z,99476.89
2017-11-28T06:17:24.900Z,99479.52
2017-11-28T06:18:29.919Z,99474.20
2017-11-28T06:19:35.141Z,99468.21
2017-11-28T06:20:40.151Z,99470.23
2017-11-28T06:21:45.330Z,99468.40
2017-11-28T06:22:50.598Z,99463.98
2017-11-28T06:23:55.690Z,99463.02
2017-11-28T06:25:00.895Z,99459.52
2017-11-28T06:26:06.141Z,99461.11
2017-11-28T06:27:11.374Z,99457.34
2017-11-28T06:28:16.389Z,99459.78
2017-11-28T06:29:21.453Z,99463.72
2017-11-28T06:30:26.655Z,99456.59
2017-11-28T06:31:31.874Z,99463.83
2017-11-28T06:32:37.320Z,99460.39
2017-11-28T06:33:42.667Z,99452.48
2017-11-28T06:34:47.937Z,99456.69
2017-11-28T06:35:53.452Z,99451.74
2017-11-28T06:36:58.637Z,99459.33
2017-11-28T06:38:03.811Z,99457.97
2017-11-28T06:39:09.070Z,99455.61
2017-11-28T06:40:14.471Z,99457.97
2017-11-28T06:41:19.702Z,99457.41
2017-11-28T06:42:24.881Z,99462.70
2017-11-28T06:43:30.165Z,99453.58
2017-11-28T06:44:35.601Z,99461.56
2017-11-28T06:45:40.846Z,99462.97
2017-11-28T06:46:45.861Z,99465.58
2017-11-28T06:47:51.028Z,99463.47
2017-11-28T06:48:56.721Z,99460.14
2017-11-28T06:50:01.938Z,99464.93
2017-11-28T06:51:07.174Z,99460.97
2017-11-28T06:52:12.401Z,99459.00
2017-11-28T06:53:17.584Z,99461.45
2017-11-28T06:54:22.741Z,99467.78
2017-11-28T06:55:27.976Z,99467.25
2017-11-28T06:56:36.304Z,99469.54
2017-11-28T06:57:41.496Z,99467.79
2017-11-28T06:58:46.681Z,99471.14
2017-11-28T06:59:57.691Z,99462.17
2017-11-28T07:01:05.022Z,99468.42
2017-11-28T07:02:10.562Z,99473.84
2017-11-28T07:03:16.101Z,99475.15
2017-11-28T07:04:22.407Z,99479.91
2017-11-28T07:05:29.564Z,99469.34
2017-11-28T07:06:37.943Z,99462.67
2017-11-28T07:07:43.843Z,99465.17
2017-11-28T07:08:49.491Z,99471.23
2017-11-28T07:09:54.707Z,99471.64
2017-11-28T07:11:00.733Z,99470.41
2017-11-28T07:12:06.114Z,99465.19
2017-11-28T07:13:11.562Z,99467.48
2017-11-28T07:14:16.782Z,99472.09
2017-11-28T07:15:21.953Z,99470.97
2017-11-28T07:16:27.148Z,99475.33
2017-11-28T07:17:32.383Z,99484.59
2017-11-28T07:18:37.776Z,99479.19
2017-11-28T07:19:43.191Z,99484.77
2017-11-28T07:20:48.622Z,99489.78
2017-11-28T07:21:53.821Z,99494.35
2017-11-28T07:22:59.304Z,99498.50
2017-11-28T07:24:04.482Z,99500.95
2017-11-28T07:25:09.674Z,99504.31
2017-11-28T07:26:15.254Z,99500.61
2017-11-28T07:27:20.429Z,99502.11
2017-11-28T07:28:25.601Z,99505.14
2017-11-28T07:29:30.753Z,99505.54
2017-11-28T07:30:35.946Z,99503.66
2017-11-28T07:31:51.785Z,99502.78
2017-11-28T07:33:01.916Z,99505.28
2017-11-28T07:34:07.109Z,99504.23
2017-11-28T07:35:12.570Z,99506.47
2017-11-28T07:36:17.787Z,99511.50
2017-11-28T07:37:23.128Z,99511.13
2017-11-28T07:38:28.320Z,99507.56
2017-11-28T07:39:34.728Z,99508.34
2017-11-28T07:40:39.908Z,99506.62
2017-11-28T07:41:45.147Z,99505.67
2017-11-28T07:42:50.418Z,99509.28
2017-11-28T07:43:55.629Z,99508.32
2017-11-28T07:45:01.115Z,99510.25
2017-11-28T07:46:06.562Z,99505.84
2017-11-28T07:47:11.977Z,99513.28
2017-11-28T07:48:17.178Z,99507.99
2017-11-28T07:49:22.348Z,99509.42
2017-11-28T07:50:27.553Z,99502.97
2017-11-28T07:51:32.781Z,99501.52
2017-11-28T07:52:37.959Z,99507.91
2017-11-28T07:53:43.151Z,99506.42
2017-11-28T07:54:48.393Z,99500.05
2017-11-28T07:55:53.618Z,99504.96
2017-11-28T07:56:58.807Z,99504.91
2017-11-28T07:58:04.046Z,99506.63
2017-11-28T07:59:09.297Z,99503.78
2017-11-28T08:00:14.908Z,99507.31
2017-11-28T08:01:20.345Z,99504.56
2017-11-28T08:02:25.571Z,99498.45
2017-11-28T08:03:30.823Z,99501.05
2017-11-28T08:04:36.242Z,99500.05
2017-11-28T08:05:41.503Z,99498.08
2017-11-28T08:06:46.738Z,99498.77
2017-11-28T08:07:52.228Z,99497.86
2017-11-28T08:08:57.616Z,99511.48
2017-11-28T08:10:03.003Z,99509.90
2017-11-28T08:11:08.198Z,99506.02
2017-11-28T08:12:13.618Z,99508.17
2017-11-28T08:13:18.862Z,99509.88
2017-11-28T08:14:24.807Z,99504.52
2017-11-28T08:15:29.987Z,99515.22
2017-11-28T08:16:35.410Z,99515.22
2017-11-28T08:17:40.694Z,99512.98
2017-11-28T08:18:45.745Z,99516.95
2017-11-28T08:19:50.912Z,99511.24
2017-11-28T08:20:56.119Z,99508.05
2017-11-28T08:22:01.501Z,99507.03
2017-11-28T08:23:06.753Z,99514.28
2017-11-28T08:24:12.018Z,99512.68
2017-11-28T08:25:17.265Z,99510.38
2017-11-28T08:26:22.461Z,99510.73
2017-11-28T08:27:27.412Z,99512.96
2017-11-28T08:28:32.450Z,99504.07
2017-11-28T08:29:37.669Z,99505.44
2017-11-28T08:30:42.915Z,99501.81
2017-11-28T08:31:48.273Z,99505.25
2017-11-28T08:32:53.341Z,99503.81
2017-11-28T08:33:58.406Z,99505.97
2017-11-28T08:35:03.658Z,99502.89
2017-11-28T08:36:09.033Z,99506.88
2017-11-28T08:37:14.091Z,99506.55
2017-11-28T08:38:19.135Z,99508.89
2017-11-28T08:39:24.125Z,99503.48
2017-11-28T08:40:29.168Z,99510.00
2017-11-28T08:41:34.482Z,99506.18
2017-11-28T08:42:39.706Z,99508.94
2017-11-28T08:43:44.713Z,99505.84
2017-11-28T08:44:49.756Z,99505.14
2017-11-28T08:45:54.995Z,99512.26
2017-11-28T08:47:00.062Z,99505.55
2017-11-28T08:48:05.272Z,99506.89
2017-11-28T08:49:10.406Z,99508.60
2017-11-28T08:50:15.644Z,99510.14
2017-11-28T08:51:20.846Z,99508.20
2017-11-28T08:52:25.846Z,99503.34
2017-11-28T08:53:31.066Z,99506.13
2017-11-28T08:54:36.288Z,99507.92
2017-11-28T08:55:41.679Z,99504.89
2017-11-28T08:56:47.071Z,99508.88
2017-11-28T08:57:52.525Z,99508.94
2017-11-28T08:58:57.950Z,99504.31
2017-11-28T09:00:03.207Z,99506.81
2017-11-28T09:01:08.610Z,99508.77
2017-11-28T09:02:13.819Z,99503.13
2017-11-28T09:03:19.232Z,99496.89
2017-11-28T09:04:24.980Z,99498.63
2017-11-28T09:05:30.381Z,99496.19
2017-11-28T09:06:37.538Z,99500.10
2017-11-28T09:07:42.759Z,99506.04
2017-11-28T09:08:48.165Z,99502.95
2017-11-28T09:09:53.363Z,99507.89
2017-11-28T09:10:58.615Z,99508.27
2017-11-28T09:12:04.905Z,99504.52
2017-11-28T09:13:10.239Z,99503.48
2017-11-28T09:14:17.169Z,99505.65
2017-11-28T09:15:25.241Z,99504.20
2017-11-28T09:16:30.973Z,99504.41
2017-11-28T09:17:37.357Z,99513.03
2017-11-28T09:18:46.485Z,99507.44
2017-11-28T09:19:51.685Z,99508.64
2017-11-28T09:20:56.877Z,99505.46
2017-11-28T09:22:02.107Z,99509.50
2017-11-28T09:23:07.484Z,99501.18
2017-11-28T09:24:12.897Z,99509.24
2017-11-28T09:25:18.080Z,99506.84
2017-11-28T09:26:23.275Z,99506.34
2017-11-28T09:27:28.834Z,99512.91
2017-11-28T09:28:34.485Z,99513.53
2017-11-28T09:29:39.688Z,99511.80
2017-11-28T09:30:44.903Z,99516.81
2017-11-28T09:31:50.117Z,99511.83
2017-11-28T09:32:55.339Z,99507.05
2017-11-28T09:34:00.748Z,99509.81
2017-11-28T09:35:06.043Z,99505.52
2017-11-28T09:36:11.280Z,99501.76
2017-11-28T09:37:16.710Z,99507.19
2017-11-28T09:38:21.942Z,99493.26
2017-11-28T09:39:27.177Z,99501.33
2017-11-28T09:40:32.931Z,99494.14
2017-11-28T09:41:38.678Z,99494.14
2017-11-28T09:42:44.138Z,99494.98
2017-11-28T09:43:49.516Z,99485.76
2017-11-28T09:44:54.909Z,99485.72
2017-11-28T09:46:00.344Z,99488.35
2017-11-28T09:47:08.492Z,99493.94
2017-11-28T09:48:13.695Z,99490.92
2017-11-28T09:49:19.364Z,99493.08
2017-11-28T09:50:24.792Z,99490.27
2017-11-28T09:51:29.973Z,99492.83
2017-11-28T09:52:35.181Z,99497.99
2017-11-28T09:53:40.581Z,99498.66
2017-11-28T09:54:46.015Z,99502.52
2017-11-28T09:55:51.792Z,99501.14
2017-11-28T09:56:57.184Z,99497.66
2017-11-28T09:58:03.246Z,99501.81
2017-11-28T09:59:10.086Z,99495.74
2017-11-28T10:00:15.519Z,99504.44
2017-11-28T10:01:21.483Z,99508.25
2017-11-28T10:02:30.452Z,99500.41
2017-11-28T10:03:35.867Z,99507.76
2017-11-28T10:04:41.457Z,99503.86
2017-11-28T10:05:46.939Z,99505.03
2017-11-28T10:06:52.532Z,99502.02
2017-11-28T10:07:57.806Z,99511.66
2017-11-28T10:09:03.356Z,99507.38
2017-11-28T10:10:08.743Z,99510.83
2017-11-28T10:11:14.139Z,99506.88
2017-11-28T10:12:19.553Z,99507.75
2017-11-28T10:13:25.307Z,99518.74
2017-11-28T10:14:30.701Z,99513.71
2017-11-28T10:15:36.445Z,99509.22
2017-11-28T10:16:42.608Z,99503.97
2017-11-28T10:17:48.035Z,99507.33
2017-11-28T10:18:53.492Z,99508.09
2017-11-28T10:19:58.888Z,99504.24
2017-11-28T10:21:04.291Z,99503.67
2017-11-28T10:22:09.904Z,99504.72
2017-11-28T10:23:15.678Z,99502.56
2017-11-28T10:24:21.411Z,99492.23
2017-11-28T10:25:26.986Z,99492.13
2017-11-28T10:26:33.293Z,99495.21
2017-11-28T10:27:38.749Z,99493.02
2017-11-28T10:28:44.180Z,99487.86
2017-11-28T10:29:49.581Z,99488.81
2017-11-28T10:30:55.038Z,99487.03
2017-11-28T10:32:00.429Z,99485.92
2017-11-28T10:33:05.919Z,99482.66
2017-11-28T10:34:11.710Z,99483.15
2017-11-28T10:35:17.169Z,99487.78
2017-11-28T10:36:22.609Z,99492.92
2017-11-28T10:37:27.910Z,99485.74
2017-11-28T10:38:33.485Z,99490.80
2017-11-28T10:39:39.241Z,99491.41
2017-11-28T10:40:44.657Z,99486.17
2017-11-28T10:41:49.880Z,99489.20
2017-11-28T10:42:56.196Z,99489.41
2017-11-28T10:44:01.603Z,99489.83
2017-11-28T10:45:07.072Z,99486.14
2017-11-28T10:46:13.042Z,99479.32
2017-11-28T10:47:18.459Z,99480.14
2017-11-28T10:48:23.894Z,99485.24
2017-11-28T10:49:29.641Z,99482.55
2017-11-28T10:50:35.420Z,99485.41
2017-11-28T10:51:40.821Z,99477.78
2017-11-28T10:52:46.587Z,99480.86
2017-11-28T10:53:51.991Z,99476.33
2017-11-28T10:54:57.347Z,99479.47
2017-11-28T10:56:08.450Z,99480.03
2017-11-28T10:57:13.905Z,99482.87
2017-11-28T10:58:19.276Z,99475.73
2017-11-28T10:59:24.652Z,99475.31
2017-11-28T11:00:29.867Z,99477.36
2017-11-28T11:01:35.068Z,99482.92
2017-11-28T11:02:40.528Z,99476.84
2017-11-28T11:03:46.018Z,99475.80
2017-11-28T11:04:51.495Z,99477.40
2017-11-28T11:05:57.279Z,99476.44
2017-11-28T11:07:02.669Z,99484.86
2017-11-28T11:08:08.137Z,99480.63
2017-11-28T11:09:13.652Z,99477.69
2017-11-28T11:10:19.088Z,99475.67
2017-11-28T11:11:24.876Z,99474.36
2017-11-28T11:12:30.263Z,99478.08
2017-11-28T11:13:35.748Z,99477.23
2017-11-28T11:14:41.502Z,99477.23
2017-11-28T11:15:47.302Z,99478.70
2017-11-28T11:16:53.039Z,99482.40
2017-11-28T11:17:58.492Z,99477.69
2017-11-28T11:19:04.176Z,99475.33
2017-11-28T11:20:09.921Z,99477.45
2017-11-28T11:21:15.193Z,99471.98
2017-11-28T11:22:20.932Z,99469.80
2017-11-28T11:23:26.686Z,99470.68
2017-11-28T11:24:32.158Z,99467.07
2017-11-28T11:25:37.565Z,99467.90
2017-11-28T11:26:43.087Z,99469.94
2017-11-28T11:27:48.465Z,99469.11
2017-11-28T11:28:53.956Z,99468.80
2017-11-28T11:30:00.014Z,99471.38
2017-11-28T11:31:05.423Z,99473.29
2017-11-28T11:32:10.800Z,99467.75
2017-11-28T11:33:16.341Z,99479.19
2017-11-28T11:34:21.933Z,99473.97
2017-11-28T11:35:27.377Z,99477.55
2017-11-28T11:36:32.761Z,99473.56
2017-11-28T11:37:38.300Z,99475.47
2017-11-28T11:38:43.704Z,99470.55
2017-11-28T11:39:49.128Z,99469.48
2017-11-28T11:40:54.531Z,99468.63
2017-11-28T11:42:00.301Z,99461.81
2017-11-28T11:43:05.682Z,99467.30
2017-11-28T11:44:11.139Z,99467.58
2017-11-28T11:45:16.367Z,99466.25
2017-11-28T11:46:21.791Z,99456.89
2017-11-28T11:47:27.901Z,99469.12
2017-11-28T11:48:33.327Z,99459.53
2017-11-28T11:49:38.554Z,99461.43
2017-11-28T11:50:43.972Z,99458.94
2017-11-28T11:51:49.361Z,99460.35
2017-11-28T11:52:59.638Z,99455.92
2017-11-28T11:54:08.306Z,99460.55
2017-11-28T11:55:14.584Z,99454.11
2017-11-28T11:56:20.006Z,99456.09
2017-11-28T11:57:25.187Z,99455.78
2017-11-28T11:58:31.264Z,99457.86
2017-11-28T11:59:36.701Z,99459.19
2017-11-28T12:00:42.159Z,99456.98
2017-11-28T12:01:47.849Z,99453.83
2017-11-28T12:02:53.262Z,99452.47
2017-11-28T12:03:59.021Z,99457.38
2017-11-28T12:05:04.461Z,99453.66
2017-11-28T12:06:09.908Z,99459.16
2017-11-28T12:07:16.288Z,99455.72
2017-11-28T12:08:21.725Z,99453.54
2017-11-28T12:09:27.129Z,99454.84
2017-11-28T12:10:32.518Z,99455.61
2017-11-28T12:11:38.057Z,99456.23
2017-11-28T12:12:43.458Z,99461.37
2017-11-28T12:13:49.466Z,99459.77
2017-11-28T12:14:54.889Z,99451.97
2017-11-28T12:16:00.283Z,99450.97
2017-11-28T12:17:05.726Z,99449.21
2017-11-28T12:18:11.107Z,99446.22
2017-11-28T12:19:16.500Z,99452.25
2017-11-28T12:20:21.969Z,99449.52
2017-11-28T12:21:27.404Z,99445.42
2017-11-28T12:22:33.005Z,99450.95
2017-11-28T12:23:38.194Z,99448.92
2017-11-28T12:24:43.590Z,99450.64
2017-11-28T12:25:48.979Z,99446.63
2017-11-28T12:26:54.570Z,99435.45
2017-11-28T12:27:59.773Z,99438.28
2017-11-28T12:29:05.169Z,99446.11
2017-11-28T12:30:11.377Z,99446.07
2017-11-28T12:31:16.773Z,99439.73
2017-11-28T12:32:22.239Z,99438.73
2017-11-28T12:33:27.672Z,99431.14
2017-11-28T12:34:33.283Z,99439.55
2017-11-28T12:35:38.714Z,99441.27
2017-11-28T12:36:44.187Z,99438.11
2017-11-28T12:37:49.705Z,99433.77
2017-11-28T12:38:55.483Z,99436.84
2017-11-28T12:40:00.891Z,99440.79
2017-11-28T12:41:06.152Z,99447.94
2017-11-28T12:42:11.753Z,99447.97
2017-11-28T12:43:17.198Z,99454.35
2017-11-28T12:44:23.025Z,99451.84
2017-11-28T12:45:28.441Z,99451.11
2017-11-28T12:46:33.866Z,99453.73
2017-11-28T12:47:39.324Z,99456.44
2017-11-28T12:48:45.414Z,99458.59
2017-11-28T12:49:50.901Z,99459.23
2017-11-28T12:50:56.385Z,99462.55
2017-11-28T12:52:01.777Z,99460.66
2017-11-28T12:53:07.182Z,99459.42